Weather at Block Island State Airport

Public forecast

Using degrees Fahrenheit for public forecast. Weather courtesy of forecast.io.

Current aviation weather report (METAR) for Block Island State Airport

Retrieved 2020/09/29 21:56 UTC (53 minutes ago):

KBID 292156Z AUTO 18009KT 10SM SCT017 OVC100 21/18 A2987 RMK AO2 SLP116 T02060183

Closest aviation forecast (TAF) to Block Island State Airport

Closest forecast is Groton New London Airport, 23.2 nm (43.0 km) WNW. Retrieved 2020/09/29 18:42 UTC (4 hours ago):

TAF KGON 291741Z 2918/3018 12010KT 5SM -SHRA BR BKN020 OVC040 FM292200 14008KT 6SM SHRA BR BKN008 OVC015 FM300300 16010KT 3SM SHRA BR BKN008 OVC010 FM300700 16018G27KT 3SM +SHRA BR OVC005 WS020/19060KT FM301200 23014G24KT 5SM SHRA BR SCT005 OVC010 FM301600 26016G26KT P6SM SCT040 BKN250